Dubbo Cooreena Rd, New South Wales

3:38 AM AEST on July 04, 2015 (GMT +1000)
West Dubbo | | Change Station
CLOSE
Current Station
Personal Weather Station
Location: Dubbo, NEW SOUTH WALES
Elevation: 951 ft
Nearby Weather Stations

Elev 951 ft 32.24 °S, 148.59 °E | Updated 3 minutes ago

Clear
Clear
33.1 °F
Feels Like 33 °F
N
1.0
Wind Variable Wind from SSE
Gusts 2.0 mph

Today
High -- | Low -- °F
--% Chance of Precip.
Yesterday
High -- | Low -- °F
Precip. -- in
7:07 AM 5:12 PM
Waning Gibbous, 96% visible
Pressure 30.24 in
Visibility 6.2 miles
Clouds
Windchill 33 °F
Dew Point 31 °F
Humidity 93%
Rainfall 0.00 in
Snow Depth Not available.
UV Not available.
Pollen Not available.
Air Quality Not available.
Flu Activity Not available.
METAR YSDU 031700Z AUTO 15003KT 9999 // NCD 00/M01 Q1024

More Conditions Fewer Conditions

Pressure 30.24 in
Visibility 6.2 miles
Clouds
Windchill 33 °F
Dew Point 31 °F
Humidity 93%
Rainfall 0.00 in
Snow Depth Not available.
UV Not available.
Pollen Not available.
Air Quality Not available.
Flu Activity Not available.
METAR YSDU 031700Z AUTO 15003KT 9999 // NCD 00/M01 Q1024

More Conditions Fewer Conditions

10-Day Weather Forecast

×

Almanac

Astronomy

Jul. 04, 2015 Rise Set
Actual Time
Civil Twilight
Nautical Twilight
Astronomical Twilight
Moon
Length of Visible Light
Length of Day
Tomorrow will be .
, % of the Moon is Illuminated

Today's Extremes

Country Highs Country Lows

Community

WunderPhotos

Upload Photos

1,834,727 photos uploaded!

WunderBlogs® & News

Nearby

Air Quality

  Air Quality AQ Index Pollutant
Not available.

Snow Depth

Station Depth Elevation

Earthquake Activity

City Distance Mag. Time & Date
Minimum magnitude displayed is 2.5.

Coastal Water Temperatures

Place Temperature

Stations

Nearby Weather Stations

Station Location Temp. Windchill Dew Point Humidity Wind Precip. Elev Updated Type